createdAt,value
2023-04-01T00:00:02.399Z,1.50
2023-04-01T00:00:13.166Z,1.30
2023-04-01T00:00:24.205Z,1.20
2023-04-01T00:00:35.177Z,2.10
2023-04-01T00:00:45.938Z,2.20
2023-04-01T00:00:56.984Z,2.50
2023-04-01T00:01:07.953Z,1.40
2023-04-01T00:01:18.726Z,1.90
2023-04-01T00:01:29.781Z,1.70
2023-04-01T00:01:40.729Z,2.10
2023-04-01T00:01:51.492Z,2.20
2023-04-01T00:02:02.543Z,2.60
2023-04-01T00:02:13.502Z,2.20
2023-04-01T00:02:24.337Z,2.20
2023-04-01T00:02:34.860Z,1.50
2023-04-01T00:02:45.908Z,1.20
2023-04-01T00:02:56.766Z,1.00
2023-04-01T00:03:07.438Z,1.30
2023-04-01T00:03:18.047Z,1.20
2023-04-01T00:03:28.994Z,0.90
2023-04-01T00:03:39.801Z,1.20
2023-04-01T00:03:50.530Z,2.00
2023-04-01T00:04:01.624Z,1.60
2023-04-01T00:04:12.186Z,1.70
2023-04-01T00:04:23.186Z,1.20
2023-04-01T00:04:34.002Z,1.40
2023-04-01T00:04:44.510Z,1.80
2023-04-01T00:04:55.470Z,2.20
2023-04-01T00:05:06.235Z,1.90
2023-04-01T00:05:17.300Z,0.80
2023-04-01T00:05:28.243Z,1.00
2023-04-01T00:05:39.005Z,1.60
2023-04-01T00:05:50.052Z,1.80
2023-04-01T00:06:01.028Z,1.50
2023-04-01T00:06:11.798Z,0.80
2023-04-01T00:06:22.838Z,1.10
2023-04-01T00:06:33.815Z,0.90
2023-04-01T00:06:44.578Z,1.30
2023-04-01T00:06:55.610Z,1.40
2023-04-01T00:07:06.577Z,2.10
2023-04-01T00:07:17.355Z,1.50
2023-04-01T00:07:30.860Z,2.10
2023-04-01T00:07:39.220Z,1.80
2023-04-01T00:07:49.985Z,1.70
2023-04-01T00:08:01.027Z,1.30
2023-04-01T00:08:11.996Z,0.90
2023-04-01T00:08:22.766Z,0.90
2023-04-01T00:08:33.814Z,1.00
2023-04-01T00:08:44.778Z,1.40
2023-04-01T00:08:55.550Z,1.40
2023-04-01T00:09:06.595Z,1.70
2023-04-01T00:09:17.559Z,2.10
2023-04-01T00:09:29.757Z,1.60
2023-04-01T00:09:39.366Z,1.40
2023-04-01T00:09:50.334Z,1.40
2023-04-01T00:10:01.098Z,2.00
2023-04-01T00:10:12.164Z,2.00
2023-04-01T00:10:23.112Z,2.00
2023-04-01T00:10:33.876Z,1.40
2023-04-01T00:10:44.581Z,1.30
2023-04-01T00:10:55.552Z,0.60
2023-04-01T00:11:06.306Z,1.00
2023-04-01T00:11:17.347Z,1.60
2023-04-01T00:11:28.349Z,1.40
2023-04-01T00:11:39.083Z,1.50
2023-04-01T00:11:50.130Z,1.00
2023-04-01T00:12:01.095Z,1.00
2023-04-01T00:12:11.853Z,1.70
2023-04-01T00:12:22.895Z,1.50
2023-04-01T00:12:33.861Z,1.20
2023-04-01T00:12:44.651Z,1.10
2023-04-01T00:12:55.669Z,1.00
2023-04-01T00:13:06.630Z,1.40
2023-04-01T00:13:17.396Z,2.00
2023-04-01T00:13:28.456Z,2.60
2023-04-01T00:13:39.432Z,1.90
2023-04-01T00:13:50.185Z,1.30
2023-04-01T00:14:01.257Z,2.70
2023-04-01T00:14:12.212Z,3.30
2023-04-01T00:14:22.981Z,1.90
2023-04-01T00:14:34.063Z,1.20
2023-04-01T00:14:44.995Z,0.90
2023-04-01T00:14:55.757Z,0.80
2023-04-01T00:15:06.805Z,0.70
2023-04-01T00:15:17.772Z,1.10
2023-04-01T00:15:28.548Z,1.50
2023-04-01T00:15:39.583Z,1.60
2023-04-01T00:15:50.620Z,1.00
2023-04-01T00:16:03.398Z,1.10
2023-04-01T00:16:20.950Z,1.00
2023-04-01T00:16:24.324Z,1.40
2023-04-01T00:16:33.926Z,1.50
2023-04-01T00:16:44.990Z,1.30
2023-04-01T00:16:55.933Z,1.30
2023-04-01T00:17:06.683Z,1.20
2023-04-01T00:17:17.715Z,0.90
2023-04-01T00:17:28.691Z,0.70
2023-04-01T00:17:39.511Z,0.70
2023-04-01T00:17:50.521Z,1.20
2023-04-01T00:18:01.550Z,1.50
2023-04-01T00:18:12.302Z,1.90
2023-04-01T00:18:23.348Z,2.30
2023-04-01T00:18:34.329Z,2.70
2023-04-01T00:18:45.090Z,1.80
2023-04-01T00:18:56.132Z,2.10
2023-04-01T00:19:07.110Z,1.00
2023-04-01T00:19:17.883Z,1.00
2023-04-01T00:19:28.932Z,0.90
2023-04-01T00:19:39.914Z,0.70
2023-04-01T00:19:50.681Z,0.80
2023-04-01T00:20:01.724Z,0.90
2023-04-01T00:20:12.691Z,1.20
2023-04-01T00:20:23.457Z,1.70
2023-04-01T00:20:34.509Z,1.40
2023-04-01T00:20:45.471Z,0.80
2023-04-01T00:20:56.240Z,1.30
2023-04-01T00:21:07.282Z,1.30
2023-04-01T00:21:18.256Z,2.20
2023-04-01T00:21:29.019Z,1.90
2023-04-01T00:21:40.091Z,2.40
2023-04-01T00:21:51.020Z,1.40
2023-04-01T00:22:01.787Z,2.00
2023-04-01T00:22:12.843Z,1.30
2023-04-01T00:22:23.797Z,1.50
2023-04-01T00:22:34.561Z,1.60
2023-04-01T00:22:45.619Z,1.90
2023-04-01T00:22:56.571Z,1.70
2023-04-01T00:23:07.349Z,2.00
2023-04-01T00:23:18.390Z,1.50
2023-04-01T00:23:29.349Z,1.60
2023-04-01T00:23:40.132Z,1.30
2023-04-01T00:23:51.192Z,1.10
2023-04-01T00:24:02.144Z,0.60
2023-04-01T00:24:12.927Z,1.10
2023-04-01T00:24:23.976Z,1.30
2023-04-01T00:24:34.957Z,1.30
2023-04-01T00:24:45.726Z,0.90
2023-04-01T00:24:56.797Z,1.20
2023-04-01T00:25:07.743Z,1.90
2023-04-01T00:25:18.506Z,2.00
2023-04-01T00:25:29.566Z,1.00
2023-04-01T00:25:40.512Z,1.20
2023-04-01T00:25:51.279Z,1.40
2023-04-01T00:26:02.326Z,1.90
2023-04-01T00:26:13.625Z,1.60
2023-04-01T00:26:24.404Z,0.90
2023-04-01T00:26:35.452Z,0.90
2023-04-01T00:26:46.417Z,1.10
2023-04-01T00:26:57.188Z,1.80
2023-04-01T00:27:08.229Z,2.20
2023-04-01T00:27:19.204Z,2.50
2023-04-01T00:27:29.958Z,1.60
2023-04-01T00:27:41.008Z,1.30
2023-04-01T00:27:51.989Z,1.20
2023-04-01T00:28:02.744Z,1.80
2023-04-01T00:28:13.777Z,2.00
2023-04-01T00:28:24.738Z,2.20
2023-04-01T00:28:35.508Z,2.20
2023-04-01T00:28:46.566Z,2.00
2023-04-01T00:28:57.528Z,1.30
2023-04-01T00:29:08.326Z,1.20
2023-04-01T00:29:19.354Z,1.20
2023-04-01T00:29:30.311Z,1.40
2023-04-01T00:29:41.087Z,1.00
2023-04-01T00:29:52.128Z,1.60
2023-04-01T00:30:03.092Z,1.10
2023-04-01T00:30:13.854Z,1.30
2023-04-01T00:30:24.894Z,1.30
2023-04-01T00:30:35.868Z,2.60
2023-04-01T00:30:46.638Z,2.20
2023-04-01T00:30:57.683Z,1.80
2023-04-01T00:31:08.705Z,0.90
2023-04-01T00:31:19.456Z,1.40
2023-04-01T00:31:30.497Z,1.30
2023-04-01T00:31:41.483Z,1.60
2023-04-01T00:31:52.311Z,1.30
2023-04-01T00:32:02.819Z,1.70
2023-04-01T00:32:13.767Z,1.40
2023-04-01T00:32:24.556Z,1.50
2023-04-01T00:32:35.603Z,2.90
2023-04-01T00:32:46.551Z,2.70
2023-04-01T00:32:57.323Z,2.40
2023-04-01T00:33:08.446Z,1.20
2023-04-01T00:33:19.372Z,1.40
2023-04-01T00:33:30.130Z,1.60
2023-04-01T00:33:41.182Z,1.10
2023-04-01T00:33:52.159Z,1.60
2023-04-01T00:34:02.932Z,1.40
2023-04-01T00:34:13.960Z,1.30
2023-04-01T00:34:24.983Z,2.30
2023-04-01T00:34:35.713Z,2.40
2023-04-01T00:34:46.766Z,2.70
2023-04-01T00:34:57.739Z,1.50
2023-04-01T00:35:08.488Z,1.30
2023-04-01T00:35:19.536Z,1.30
2023-04-01T00:35:30.771Z,1.30
2023-04-01T00:35:41.641Z,0.90
2023-04-01T00:35:52.712Z,0.80
2023-04-01T00:36:03.671Z,0.80
2023-04-01T00:36:14.439Z,1.30
2023-04-01T00:36:25.492Z,1.70
2023-04-01T00:36:36.446Z,1.60
2023-04-01T00:36:47.196Z,1.50
2023-04-01T00:36:58.247Z,1.50
2023-04-01T00:37:09.208Z,1.60
2023-04-01T00:37:19.985Z,1.30
2023-04-01T00:37:31.027Z,0.90
2023-04-01T00:37:41.990Z,1.00
2023-04-01T00:37:52.748Z,1.00
2023-04-01T00:38:03.808Z,1.30
2023-04-01T00:38:14.814Z,1.10
2023-04-01T00:38:25.545Z,1.00
2023-04-01T00:38:36.605Z,0.90
2023-04-01T00:38:47.578Z,1.40
2023-04-01T00:38:58.351Z,1.50
2023-04-01T00:39:09.408Z,1.60
2023-04-01T00:39:20.367Z,1.20
2023-04-01T00:39:31.133Z,1.30
2023-04-01T00:39:42.179Z,1.20
2023-04-01T00:39:53.145Z,1.30
2023-04-01T00:40:03.906Z,1.40
2023-04-01T00:40:14.964Z,1.40
2023-04-01T00:40:25.937Z,1.50
2023-04-01T00:40:36.697Z,1.00
2023-04-01T00:40:47.743Z,1.30
2023-04-01T00:40:58.709Z,1.40
2023-04-01T00:41:09.474Z,2.40
2023-04-01T00:41:20.519Z,1.70
2023-04-01T00:41:31.504Z,1.80
2023-04-01T00:41:42.255Z,1.20
2023-04-01T00:41:53.299Z,1.80
2023-04-01T00:42:04.262Z,1.90
2023-04-01T00:42:15.025Z,1.90
2023-04-01T00:42:26.070Z,0.90
2023-04-01T00:42:37.035Z,1.20
2023-04-01T00:42:47.800Z,1.00
2023-04-01T00:42:58.868Z,0.70
2023-04-01T00:43:09.813Z,0.80
2023-04-01T00:43:20.606Z,0.80
2023-04-01T00:43:31.623Z,1.20
2023-04-01T00:43:42.594Z,1.90
2023-04-01T00:43:53.389Z,2.60
2023-04-01T00:44:04.410Z,2.40
2023-04-01T00:44:15.446Z,1.90
2023-04-01T00:44:26.215Z,1.90
2023-04-01T00:44:37.262Z,1.80
2023-04-01T00:44:48.220Z,1.70
2023-04-01T00:44:58.984Z,1.40
2023-04-01T00:45:10.031Z,1.30
2023-04-01T00:45:21.050Z,1.00
2023-04-01T00:45:32.033Z,1.50
2023-04-01T00:45:42.646Z,1.40
2023-04-01T00:45:53.614Z,1.30
2023-04-01T00:46:04.383Z,1.50
2023-04-01T00:46:15.529Z,1.40
2023-04-01T00:46:26.505Z,1.40
2023-04-01T00:46:37.288Z,1.10
2023-04-01T00:46:48.338Z,1.50
2023-04-01T00:46:59.313Z,1.60
2023-04-01T00:47:10.097Z,1.60
2023-04-01T00:47:21.127Z,1.70
2023-04-01T00:47:32.101Z,0.90
2023-04-01T00:47:42.897Z,1.90
2023-04-01T00:47:53.942Z,2.20
2023-04-01T00:48:04.893Z,2.40
2023-04-01T00:48:15.634Z,1.70
2023-04-01T00:48:26.701Z,2.30
2023-04-01T00:48:37.651Z,1.90
2023-04-01T00:48:48.433Z,2.20
2023-04-01T00:48:59.486Z,1.30
2023-04-01T00:49:10.454Z,1.70
2023-04-01T00:49:21.223Z,2.40
2023-04-01T00:49:32.282Z,2.50
2023-04-01T00:49:43.254Z,2.20
2023-04-01T00:49:54.016Z,1.70
2023-04-01T00:50:05.058Z,2.60
2023-04-01T00:50:16.028Z,2.30
2023-04-01T00:50:26.790Z,2.50
2023-04-01T00:50:37.846Z,1.90
2023-04-01T00:50:48.814Z,1.70
2023-04-01T00:50:59.662Z,1.00
2023-04-01T00:51:10.716Z,0.70
2023-04-01T00:51:21.688Z,1.80
2023-04-01T00:51:32.438Z,2.80
2023-04-01T00:51:43.491Z,3.10
2023-04-01T00:51:54.494Z,1.50
2023-04-01T00:52:05.245Z,0.90
2023-04-01T00:52:16.285Z,0.70
2023-04-01T00:52:27.249Z,0.80
2023-04-01T00:52:38.014Z,1.50
2023-04-01T00:52:49.059Z,1.90
2023-04-01T00:53:00.032Z,2.30
2023-04-01T00:53:10.789Z,1.70
2023-04-01T00:53:21.930Z,1.80
2023-04-01T00:53:32.902Z,2.30
2023-04-01T00:53:43.621Z,1.60
2023-04-01T00:53:54.677Z,1.70
2023-04-01T00:54:05.641Z,1.10
2023-04-01T00:54:16.407Z,1.20
2023-04-01T00:54:27.468Z,1.40
2023-04-01T00:54:38.434Z,1.00
2023-04-01T00:54:49.199Z,1.20
2023-04-01T00:55:00.243Z,1.60
2023-04-01T00:55:11.205Z,2.10
2023-04-01T00:55:21.974Z,2.00
2023-04-01T00:55:33.510Z,1.50
2023-04-01T00:55:44.084Z,1.90
2023-04-01T00:55:54.850Z,1.70
2023-04-01T00:56:05.904Z,1.50
2023-04-01T00:56:16.865Z,1.10
2023-04-01T00:56:27.635Z,1.10
2023-04-01T00:56:38.667Z,1.10
2023-04-01T00:56:49.732Z,1.10
2023-04-01T00:57:00.510Z,2.20
2023-04-01T00:57:11.564Z,2.60
2023-04-01T00:57:22.514Z,3.30
2023-04-01T00:57:33.328Z,2.30
2023-04-01T00:57:43.819Z,1.90
2023-04-01T00:57:54.784Z,1.40
2023-04-01T00:58:05.572Z,1.10
2023-04-01T00:58:16.597Z,1.90
2023-04-01T00:58:27.563Z,1.80
2023-04-01T00:58:38.359Z,2.00
2023-04-01T00:58:49.372Z,2.40
2023-04-01T00:59:00.347Z,2.30
2023-04-01T00:59:11.110Z,1.00
2023-04-01T00:59:22.160Z,0.90
2023-04-01T00:59:33.130Z,1.10
2023-04-01T00:59:43.894Z,1.50
2023-04-01T00:59:54.940Z,1.30
2023-04-01T01:00:05.908Z,1.00
2023-04-01T01:00:16.675Z,0.80
2023-04-01T01:00:27.713Z,1.60
2023-04-01T01:00:38.695Z,1.80
2023-04-01T01:00:49.519Z,1.80
2023-04-01T01:01:00.561Z,1.60
2023-04-01T01:01:11.578Z,1.50
2023-04-01T01:01:22.458Z,1.80
2023-04-01T01:01:32.981Z,1.70
2023-04-01T01:01:43.967Z,3.10
2023-04-01T01:01:54.824Z,2.80
2023-04-01T01:02:05.359Z,2.80
2023-04-01T01:02:16.373Z,1.90
2023-04-01T01:02:27.279Z,1.70
2023-04-01T01:02:37.931Z,1.60
2023-04-01T01:02:48.405Z,1.30
2023-04-01T01:02:59.287Z,1.10
2023-04-01T01:03:09.814Z,1.00
2023-04-01T01:03:20.804Z,1.50
2023-04-01T01:03:31.590Z,1.30
2023-04-01T01:03:42.628Z,1.90
2023-04-01T01:03:53.602Z,2.00
2023-04-01T01:04:04.369Z,1.80
2023-04-01T01:04:15.413Z,1.30
2023-04-01T01:04:26.387Z,1.40
2023-04-01T01:04:37.152Z,1.60
2023-04-01T01:04:48.206Z,1.70
2023-04-01T01:04:59.164Z,1.90
2023-04-01T01:05:09.929Z,1.70
2023-04-01T01:05:20.989Z,1.30
2023-04-01T01:05:34.147Z,1.30
2023-04-01T01:05:55.101Z,1.50
2023-04-01T01:06:04.990Z,1.80
2023-04-01T01:06:15.752Z,1.70
2023-04-01T01:06:26.801Z,1.40
2023-04-01T01:06:37.766Z,1.50
2023-04-01T01:06:48.537Z,1.50
2023-04-01T01:06:59.073Z,1.40
2023-04-01T01:07:10.051Z,1.60
2023-04-01T01:07:20.805Z,3.20
2023-04-01T01:07:31.850Z,3.80
2023-04-01T01:07:42.820Z,3.20
2023-04-01T01:07:53.621Z,1.80
2023-04-01T01:08:04.627Z,1.60
2023-04-01T01:08:15.598Z,1.70
2023-04-01T01:08:26.356Z,1.60
2023-04-01T01:08:37.401Z,1.20
2023-04-01T01:08:48.363Z,2.00
2023-04-01T01:08:59.135Z,2.90
2023-04-01T01:09:10.190Z,2.80
2023-04-01T01:09:21.156Z,2.40
2023-04-01T01:09:31.923Z,1.80
2023-04-01T01:09:42.981Z,1.50
2023-04-01T01:09:53.999Z,1.70
2023-04-01T01:10:04.768Z,1.80
2023-04-01T01:10:15.818Z,1.60
2023-04-01T01:10:26.788Z,1.10
2023-04-01T01:10:37.550Z,1.30
2023-04-01T01:10:48.611Z,1.80
2023-04-01T01:10:59.559Z,1.80
2023-04-01T01:11:21.363Z,0.70
2023-04-01T01:11:37.039Z,1.00
2023-04-01T01:11:44.195Z,0.90
2023-04-01T01:11:53.604Z,1.30
2023-04-01T01:12:04.576Z,1.40
2023-04-01T01:12:15.343Z,1.70
2023-04-01T01:12:26.379Z,1.80
2023-04-01T01:12:37.351Z,2.00
2023-04-01T01:12:48.117Z,1.60
2023-04-01T01:12:59.164Z,1.10
2023-04-01T01:13:10.155Z,2.20
2023-04-01T01:13:20.901Z,2.90
2023-04-01T01:13:31.938Z,2.80
2023-04-01T01:13:42.899Z,1.80
2023-04-01T01:13:53.671Z,2.50
2023-04-01T01:14:04.710Z,2.30
2023-04-01T01:14:15.695Z,1.60
2023-04-01T01:14:26.464Z,1.60
2023-04-01T01:14:37.509Z,1.70
2023-04-01T01:14:48.489Z,1.10
2023-04-01T01:14:59.260Z,1.30
2023-04-01T01:15:10.307Z,1.80
2023-04-01T01:15:21.271Z,2.20
2023-04-01T01:15:32.215Z,1.90
2023-04-01T01:15:42.837Z,1.90
2023-04-01T01:15:53.796Z,2.00
2023-04-01T01:16:04.646Z,2.40
2023-04-01T01:16:15.666Z,1.70
2023-04-01T01:16:26.649Z,1.80
2023-04-01T01:16:37.420Z,1.60
2023-04-01T01:16:48.478Z,2.60
2023-04-01T01:16:59.459Z,2.70
2023-04-01T01:17:10.191Z,3.30
2023-04-01T01:17:21.248Z,2.40
2023-04-01T01:17:32.251Z,1.60
2023-04-01T01:17:43.004Z,1.20
2023-04-01T01:17:54.120Z,1.80
2023-04-01T01:18:05.128Z,2.40
2023-04-01T01:18:15.894Z,2.50
2023-04-01T01:18:26.943Z,2.00
2023-04-01T01:18:37.926Z,2.00
2023-04-01T01:18:48.675Z,2.80
2023-04-01T01:18:59.723Z,2.80
2023-04-01T01:19:10.695Z,2.50
2023-04-01T01:19:21.466Z,2.10
2023-04-01T01:19:32.518Z,1.40
2023-04-01T01:19:43.478Z,0.80
2023-04-01T01:19:54.255Z,1.50
2023-04-01T01:20:10.053Z,2.10
2023-04-01T01:20:25.869Z,1.90
2023-04-01T01:20:28.120Z,1.10
2023-04-01T01:20:38.078Z,1.60
2023-04-01T01:20:49.046Z,1.50
2023-04-01T01:20:59.815Z,1.60
2023-04-01T01:21:10.858Z,1.60
2023-04-01T01:21:21.827Z,2.70
2023-04-01T01:21:32.593Z,4.00
2023-04-01T01:21:43.635Z,4.20
2023-04-01T01:21:54.607Z,2.90
2023-04-01T01:22:05.381Z,1.70
2023-04-01T01:22:16.426Z,1.60
2023-04-01T01:22:27.392Z,1.40
2023-04-01T01:22:38.160Z,1.20
2023-04-01T01:22:49.199Z,2.20
2023-04-01T01:23:00.169Z,3.40
2023-04-01T01:23:10.941Z,4.40
2023-04-01T01:23:21.993Z,4.00
2023-04-01T01:23:32.965Z,2.20
2023-04-01T01:23:43.736Z,3.00
2023-04-01T01:23:54.787Z,2.90
2023-04-01T01:24:05.754Z,3.10
2023-04-01T01:24:16.519Z,2.10
2023-04-01T01:24:27.570Z,1.70
2023-04-01T01:24:38.535Z,1.20
2023-04-01T01:24:49.303Z,1.30
2023-04-01T01:25:00.365Z,1.40
2023-04-01T01:25:11.328Z,1.80
2023-04-01T01:25:22.116Z,1.40
2023-04-01T01:25:33.454Z,2.30
2023-04-01T01:25:43.994Z,2.00
2023-04-01T01:25:54.758Z,2.50
2023-04-01T01:26:05.804Z,2.30
2023-04-01T01:26:16.770Z,1.90
2023-04-01T01:26:27.595Z,1.90
2023-04-01T01:26:38.579Z,1.10
2023-04-01T01:26:49.549Z,0.70
2023-04-01T01:27:00.322Z,1.50
2023-04-01T01:27:11.352Z,2.10
2023-04-01T01:27:22.326Z,2.20
2023-04-01T01:27:33.084Z,2.70
2023-04-01T01:27:44.139Z,2.70
2023-04-01T01:27:55.111Z,2.50
2023-04-01T01:28:05.877Z,2.20
2023-04-01T01:28:16.948Z,1.70
2023-04-01T01:28:27.886Z,0.70
2023-04-01T01:28:38.651Z,0.80
2023-04-01T01:28:49.696Z,1.40
2023-04-01T01:29:00.660Z,1.50
2023-04-01T01:29:11.426Z,1.40
2023-04-01T01:29:22.470Z,1.30
2023-04-01T01:29:33.468Z,1.60
2023-04-01T01:29:44.212Z,1.50
2023-04-01T01:29:55.260Z,1.80
2023-04-01T01:30:06.237Z,2.20
2023-04-01T01:30:17.006Z,1.70
2023-04-01T01:30:28.048Z,2.00
2023-04-01T01:30:39.048Z,2.10
2023-04-01T01:30:49.800Z,2.30
2023-04-01T01:31:00.923Z,3.10
2023-04-01T01:31:11.911Z,3.10
2023-04-01T01:31:22.732Z,2.50
2023-04-01T01:31:33.277Z,1.40
2023-04-01T01:31:44.239Z,1.20
2023-04-01T01:31:55.024Z,1.30
2023-04-01T01:32:06.052Z,1.70
2023-04-01T01:32:17.017Z,1.90
2023-04-01T01:32:27.799Z,1.70
2023-04-01T01:32:38.916Z,1.60
2023-04-01T01:32:49.890Z,2.40
2023-04-01T01:33:00.650Z,2.30
2023-04-01T01:33:11.707Z,1.10
2023-04-01T01:33:22.664Z,1.00
2023-04-01T01:33:33.405Z,1.30
2023-04-01T01:33:44.455Z,2.70
2023-04-01T01:33:55.433Z,2.90
2023-04-01T01:34:06.193Z,3.70
2023-04-01T01:34:17.235Z,2.60
2023-04-01T01:34:28.200Z,2.40
2023-04-01T01:34:38.972Z,2.10
2023-04-01T01:34:50.028Z,2.30
2023-04-01T01:35:00.995Z,2.20
2023-04-01T01:35:11.752Z,2.40
2023-04-01T01:35:22.798Z,3.00
2023-04-01T01:35:33.968Z,2.20
2023-04-01T01:35:44.949Z,2.20
2023-04-01T01:35:55.990Z,1.70
2023-04-01T01:36:06.981Z,2.70
2023-04-01T01:36:17.719Z,2.10
2023-04-01T01:36:28.814Z,1.80
2023-04-01T01:36:39.731Z,1.40
2023-04-01T01:36:50.496Z,2.10
2023-04-01T01:37:01.544Z,2.10
2023-04-01T01:37:12.508Z,2.20
2023-04-01T01:37:23.291Z,1.90
2023-04-01T01:37:34.326Z,1.50
2023-04-01T01:37:45.303Z,1.60
2023-04-01T01:37:56.052Z,1.60
2023-04-01T01:38:07.106Z,2.10
2023-04-01T01:38:18.074Z,1.60
2023-04-01T01:38:28.832Z,1.80
2023-04-01T01:38:39.873Z,1.20
2023-04-01T01:38:50.844Z,1.60
2023-04-01T01:39:01.609Z,1.80
2023-04-01T01:39:12.652Z,2.00
2023-04-01T01:39:23.620Z,1.50
2023-04-01T01:39:34.389Z,1.80
2023-04-01T01:39:45.450Z,2.70
2023-04-01T01:39:56.448Z,3.10
2023-04-01T01:40:07.210Z,2.40
2023-04-01T01:40:18.265Z,2.10
2023-04-01T01:40:29.221Z,2.20
2023-04-01T01:40:39.986Z,2.70
2023-04-01T01:40:51.031Z,3.20
2023-04-01T01:41:01.999Z,2.60
2023-04-01T01:41:12.762Z,3.40
2023-04-01T01:41:23.810Z,4.50
2023-04-01T01:41:34.774Z,4.50
2023-04-01T01:41:45.538Z,2.60
2023-04-01T01:41:56.593Z,1.60
2023-04-01T01:42:07.560Z,2.20
2023-04-01T01:42:18.324Z,2.50
2023-04-01T01:42:29.369Z,2.00
2023-04-01T01:42:40.339Z,1.60
2023-04-01T01:42:51.107Z,1.70
2023-04-01T01:43:02.152Z,1.20
2023-04-01T01:43:13.112Z,1.40
2023-04-01T01:43:23.896Z,1.00
2023-04-01T01:43:34.932Z,2.90
2023-04-01T01:43:45.894Z,2.90
2023-04-01T01:43:56.656Z,2.80
2023-04-01T01:44:07.707Z,1.90
2023-04-01T01:44:18.667Z,1.70
2023-04-01T01:44:29.467Z,1.60
2023-04-01T01:44:40.509Z,1.50
2023-04-01T01:44:51.482Z,2.00
2023-04-01T01:45:02.267Z,2.00
2023-04-01T01:45:13.285Z,1.70
2023-04-01T01:45:24.275Z,1.30
2023-04-01T01:45:35.029Z,0.90
2023-04-01T01:45:46.093Z,0.80
2023-04-01T01:45:57.134Z,0.90
2023-04-01T01:46:07.939Z,1.80
2023-04-01T01:46:18.964Z,2.30
2023-04-01T01:46:29.992Z,2.40
2023-04-01T01:46:40.761Z,2.60
2023-04-01T01:46:51.782Z,3.00
2023-04-01T01:47:02.748Z,2.80
2023-04-01T01:47:13.524Z,2.40
2023-04-01T01:47:24.594Z,1.70
2023-04-01T01:47:35.577Z,2.20
2023-04-01T01:47:46.403Z,2.60
2023-04-01T01:47:56.913Z,1.60
2023-04-01T01:48:07.955Z,1.70
2023-04-01T01:48:18.698Z,2.10
2023-04-01T01:48:29.746Z,2.30
2023-04-01T01:48:40.710Z,1.90
2023-04-01T01:48:51.475Z,1.00
2023-04-01T01:49:02.519Z,1.00
2023-04-01T01:49:13.482Z,1.00
2023-04-01T01:49:24.251Z,1.70
2023-04-01T01:49:35.301Z,2.50
2023-04-01T01:49:46.274Z,2.90
2023-04-01T01:49:57.044Z,3.60
2023-04-01T01:50:08.089Z,2.70
2023-04-01T01:50:19.057Z,2.70
2023-04-01T01:50:29.831Z,2.20
2023-04-01T01:50:40.884Z,2.20
2023-04-01T01:50:51.851Z,1.60
2023-04-01T01:51:02.612Z,2.10
2023-04-01T01:51:13.653Z,2.50
2023-04-01T01:51:24.620Z,2.30
2023-04-01T01:51:35.388Z,1.90
2023-04-01T01:51:46.429Z,2.40
2023-04-01T01:51:57.399Z,3.20
2023-04-01T01:52:08.169Z,2.80
2023-04-01T01:52:19.210Z,1.50
2023-04-01T01:52:30.172Z,1.70
2023-04-01T01:52:40.935Z,2.20
2023-04-01T01:52:51.979Z,2.10
2023-04-01T01:53:02.966Z,1.30
2023-04-01T01:53:13.720Z,1.20
2023-04-01T01:53:24.769Z,1.30
2023-04-01T01:53:35.736Z,1.70
2023-04-01T01:53:46.499Z,1.20
2023-04-01T01:53:57.542Z,1.30
2023-04-01T01:54:08.557Z,1.40
2023-04-01T01:54:19.325Z,1.30
2023-04-01T01:54:30.364Z,1.50
2023-04-01T01:54:41.330Z,0.90
2023-04-01T01:54:52.108Z,2.20
2023-04-01T01:55:03.155Z,2.50
2023-04-01T01:55:14.123Z,2.10
2023-04-01T01:55:24.886Z,1.70
2023-04-01T01:55:35.952Z,1.70
2023-04-01T01:55:46.918Z,1.10
2023-04-01T01:55:57.678Z,3.30
2023-04-01T01:56:08.725Z,3.30
2023-04-01T01:56:19.697Z,2.90
2023-04-01T01:56:30.452Z,2.40
2023-04-01T01:56:41.500Z,3.10
2023-04-01T01:56:52.488Z,2.10
2023-04-01T01:57:03.252Z,1.60
2023-04-01T01:57:14.331Z,1.60
2023-04-01T01:57:25.286Z,2.10
2023-04-01T01:57:36.057Z,2.20
2023-04-01T01:57:47.092Z,2.00
2023-04-01T01:57:58.049Z,1.60
2023-04-01T01:58:08.816Z,1.50
2023-04-01T01:58:19.863Z,1.40
2023-04-01T01:58:30.859Z,1.30
2023-04-01T01:58:41.610Z,1.80
2023-04-01T01:58:52.668Z,2.30
2023-04-01T01:59:03.615Z,2.30
2023-04-01T01:59:14.366Z,1.60
2023-04-01T01:59:25.409Z,2.20
2023-04-01T01:59:36.376Z,2.10
2023-04-01T01:59:47.143Z,3.10
2023-04-01T01:59:58.195Z,2.70
2023-04-01T02:00:09.166Z,2.50
2023-04-01T02:00:19.931Z,2.70
2023-04-01T02:00:30.986Z,3.10
2023-04-01T02:00:41.950Z,3.00
2023-04-01T02:00:52.712Z,2.90
2023-04-01T02:01:03.793Z,2.50
2023-04-01T02:01:14.793Z,2.00
2023-04-01T02:01:25.512Z,1.40
2023-04-01T02:01:36.584Z,1.80
2023-04-01T02:01:47.631Z,2.20
2023-04-01T02:01:58.502Z,2.90
2023-04-01T02:02:09.059Z,2.80
2023-04-01T02:02:20.024Z,2.60
2023-04-01T02:02:30.820Z,2.10
2023-04-01T02:02:41.831Z,1.40
2023-04-01T02:02:52.826Z,1.30
2023-04-01T02:03:03.601Z,1.60
2023-04-01T02:03:14.620Z,1.90
2023-04-01T02:03:25.575Z,1.50
2023-04-01T02:03:36.349Z,1.30
2023-04-01T02:03:47.390Z,1.00
2023-04-01T02:03:58.352Z,1.50
2023-04-01T02:04:09.168Z,2.10
2023-04-01T02:04:20.270Z,1.80
2023-04-01T02:04:31.273Z,1.50
2023-04-01T02:04:42.042Z,0.80
2023-04-01T02:04:53.130Z,1.20
2023-04-01T02:05:03.649Z,2.00
2023-04-01T02:05:14.424Z,1.70
2023-04-01T02:05:25.469Z,1.70
2023-04-01T02:05:36.458Z,1.60
2023-04-01T02:05:47.242Z,1.80
2023-04-01T02:05:58.279Z,1.80
2023-04-01T02:06:09.251Z,1.80
2023-04-01T02:06:20.023Z,2.20
2023-04-01T02:06:31.056Z,2.70
2023-04-01T02:06:42.021Z,2.10
2023-04-01T02:06:52.796Z,1.50
2023-04-01T02:07:03.827Z,1.00
2023-04-01T02:07:14.794Z,1.90
2023-04-01T02:07:25.568Z,2.30
2023-04-01T02:07:36.624Z,2.30
2023-04-01T02:07:47.568Z,1.60
2023-04-01T02:07:58.334Z,1.60
2023-04-01T02:08:09.377Z,2.50
2023-04-01T02:08:20.344Z,2.10
2023-04-01T02:08:31.107Z,1.40
2023-04-01T02:08:42.151Z,2.20
2023-04-01T02:08:53.148Z,1.90
2023-04-01T02:09:03.884Z,1.70
2023-04-01T02:09:14.925Z,1.20
2023-04-01T02:09:25.893Z,1.50
2023-04-01T02:09:36.654Z,1.40
2023-04-01T02:09:47.697Z,1.20
2023-04-01T02:09:58.669Z,1.60
2023-04-01T02:10:09.429Z,1.80
2023-04-01T02:10:20.498Z,2.20
2023-04-01T02:10:31.454Z,1.40
2023-04-01T02:10:42.218Z,1.40
2023-04-01T02:10:53.269Z,1.20
2023-04-01T02:11:04.234Z,1.10
2023-04-01T02:11:14.997Z,1.30
2023-04-01T02:11:26.049Z,1.10
2023-04-01T02:11:37.034Z,0.80
2023-04-01T02:11:47.778Z,0.90
2023-04-01T02:11:58.832Z,1.20
2023-04-01T02:12:09.828Z,0.90
2023-04-01T02:12:20.560Z,1.00
2023-04-01T02:12:31.603Z,1.60
2023-04-01T02:12:42.570Z,2.40
2023-04-01T02:12:53.342Z,3.00
2023-04-01T02:13:04.378Z,2.30
2023-04-01T02:13:15.343Z,1.30
2023-04-01T02:13:26.114Z,1.20
2023-04-01T02:13:37.177Z,1.90
2023-04-01T02:13:48.126Z,1.60
2023-04-01T02:13:58.890Z,1.40
2023-04-01T02:14:09.930Z,1.50
2023-04-01T02:14:20.903Z,1.80
2023-04-01T02:14:31.680Z,1.30
2023-04-01T02:14:42.713Z,0.90
2023-04-01T02:14:53.675Z,1.30
2023-04-01T02:15:04.437Z,1.90
2023-04-01T02:15:15.490Z,2.00
2023-04-01T02:15:26.481Z,2.00
2023-04-01T02:15:37.241Z,1.70
2023-04-01T02:15:48.317Z,2.30
2023-04-01T02:15:59.316Z,2.30
2023-04-01T02:16:10.058Z,1.90
2023-04-01T02:16:21.168Z,1.40
2023-04-01T02:16:32.129Z,1.00
2023-04-01T02:16:42.855Z,2.00
2023-04-01T02:16:53.910Z,3.00
2023-04-01T02:17:04.870Z,3.50
2023-04-01T02:17:15.633Z,2.00
2023-04-01T02:17:26.697Z,1.30
2023-04-01T02:17:37.757Z,2.00
2023-04-01T02:17:48.625Z,2.40
2023-04-01T02:17:59.151Z,1.60
2023-04-01T02:18:10.097Z,0.80
2023-04-01T02:18:20.835Z,1.00
2023-04-01T02:18:31.881Z,1.20
2023-04-01T02:18:42.848Z,1.60
2023-04-01T02:18:53.611Z,2.00
2023-04-01T02:19:04.660Z,2.20
2023-04-01T02:19:15.620Z,1.70
2023-04-01T02:19:26.386Z,1.20
2023-04-01T02:19:37.452Z,0.80
2023-04-01T02:19:48.408Z,0.70
2023-04-01T02:19:59.160Z,0.60
2023-04-01T02:20:10.209Z,1.10
2023-04-01T02:20:21.171Z,1.90
2023-04-01T02:20:31.960Z,1.90
2023-04-01T02:20:42.998Z,2.40
2023-04-01T02:20:53.975Z,2.20
2023-04-01T02:21:04.734Z,2.00
2023-04-01T02:21:15.797Z,1.40
2023-04-01T02:21:26.755Z,1.50
2023-04-01T02:21:37.557Z,1.60
2023-04-01T02:21:48.565Z,1.50
2023-04-01T02:21:59.526Z,1.70
2023-04-01T02:22:10.287Z,1.20
2023-04-01T02:22:21.336Z,1.40
2023-04-01T02:22:32.306Z,1.30
2023-04-01T02:22:43.061Z,2.10
2023-04-01T02:22:54.112Z,1.80
2023-04-01T02:23:05.089Z,1.20
2023-04-01T02:23:15.839Z,0.90
2023-04-01T02:23:26.886Z,1.00
2023-04-01T02:23:37.847Z,0.80
2023-04-01T02:23:48.612Z,0.90
2023-04-01T02:23:59.667Z,1.20
2023-04-01T02:24:10.631Z,1.80
2023-04-01T02:24:21.392Z,1.50
2023-04-01T02:24:32.441Z,0.90
2023-04-01T02:24:43.430Z,0.80
2023-04-01T02:24:54.180Z,0.40
2023-04-01T02:25:05.222Z,0.90
2023-04-01T02:25:16.185Z,1.10
2023-04-01T02:25:26.947Z,1.30
2023-04-01T02:25:37.553Z,1.20